Hartland, Wisconsin
Current Conditions -  °F | °C
As of 12:45 PM on Friday 31 Oct 2014 (Local Time) from KUES Reporting Station
Overcast Overcast  
Wind Chill: 21°   Ceiling: 3600
Heat Index: 34°   Visibility: 10mi
Dew Point: 21°   Wind: 24mph
Humidity: 60%   Direction: 340°NNW
Pressure: 30.25"   Gusts: 32mph
Location:  43.1°N, 88.35°W
Report Text: KUES 311745Z 34021G28KT 10SM OVC036 01/M06 A3025
Loading
Personal Weather Stations






























Interactive Weather Map
Tropical Storm Tracking
New forecast layout! Learn more

10-Day Weather Forecast

Advertisements
Track Severe Weather on mobile